createdAt,value
2018-09-11T00:01:13.489Z,18.20
2018-09-11T00:03:41.980Z,18.20
2018-09-11T00:06:10.439Z,18.10
2018-09-11T00:08:38.925Z,18.10
2018-09-11T00:11:07.421Z,18.10
2018-09-11T00:13:35.886Z,18.00
2018-09-11T00:16:04.385Z,18.00
2018-09-11T00:18:32.872Z,18.00
2018-09-11T00:21:01.370Z,18.00
2018-09-11T00:23:29.813Z,18.00
2018-09-11T00:25:58.622Z,17.90
2018-09-11T00:28:27.103Z,17.90
2018-09-11T00:30:55.584Z,17.90
2018-09-11T00:33:24.189Z,17.80
2018-09-11T00:35:52.757Z,17.80
2018-09-11T00:38:21.217Z,17.80
2018-09-11T00:40:49.702Z,17.80
2018-09-11T00:43:18.176Z,17.80
2018-09-11T00:45:47.592Z,17.70
2018-09-11T00:48:16.072Z,17.70
2018-09-11T00:50:44.561Z,17.80
2018-09-11T00:53:13.035Z,17.80
2018-09-11T00:55:41.514Z,17.80
2018-09-11T00:58:10.045Z,17.80
2018-09-11T01:00:38.469Z,17.80
2018-09-11T01:03:07.291Z,17.80
2018-09-11T01:05:35.744Z,17.80
2018-09-11T01:08:04.286Z,17.80
2018-09-11T01:10:32.692Z,17.70
2018-09-11T01:13:01.205Z,17.80
2018-09-11T01:15:29.734Z,17.80
2018-09-11T01:17:58.166Z,17.80
2018-09-11T01:20:26.637Z,17.80
2018-09-11T01:22:55.156Z,17.80
2018-09-11T01:25:23.600Z,17.80
2018-09-11T01:27:52.081Z,17.80
2018-09-11T01:30:22.017Z,17.80
2018-09-11T01:32:51.404Z,17.80
2018-09-11T01:35:20.291Z,17.80
2018-09-11T01:37:48.784Z,17.80
2018-09-11T01:40:17.484Z,17.80
2018-09-11T01:42:45.935Z,17.80
2018-09-11T01:45:15.505Z,17.80
2018-09-11T01:47:44.018Z,17.80
2018-09-11T01:50:12.516Z,17.70
2018-09-11T01:52:41.006Z,17.70
2018-09-11T01:55:09.525Z,17.70
2018-09-11T01:57:37.957Z,17.70
2018-09-11T02:00:10.890Z,17.70
2018-09-11T02:02:39.592Z,17.70
2018-09-11T02:05:08.032Z,17.70
2018-09-11T02:07:36.547Z,17.70
2018-09-11T02:10:05.000Z,17.70
2018-09-11T02:12:33.461Z,17.70
2018-09-11T02:15:02.001Z,17.70
2018-09-11T02:17:30.966Z,17.60
2018-09-11T02:19:59.461Z,17.60
2018-09-11T02:22:27.911Z,17.50
2018-09-11T02:24:56.397Z,17.50
2018-09-11T02:27:24.878Z,17.40
2018-09-11T02:29:53.333Z,17.30
2018-09-11T02:32:21.856Z,17.40
2018-09-11T02:34:50.296Z,17.40
2018-09-11T02:37:19.732Z,17.30
2018-09-11T02:39:48.172Z,17.30
2018-09-11T02:42:16.674Z,17.30
2018-09-11T02:51:44.553Z,17.20
2018-09-11T02:54:13.073Z,17.10
2018-09-11T02:56:41.545Z,17.10
2018-09-11T02:59:10.073Z,17.10
2018-09-11T03:01:38.604Z,17.10
2018-09-11T03:04:07.142Z,17.10
2018-09-11T03:06:35.589Z,17.10
2018-09-11T03:09:05.444Z,17.10
2018-09-11T03:11:33.868Z,17.00
2018-09-11T03:14:02.407Z,17.00
2018-09-11T03:16:30.851Z,17.00
2018-09-11T03:18:59.416Z,17.00
2018-09-11T03:21:27.804Z,16.90
2018-09-11T03:23:56.377Z,16.90
2018-09-11T03:26:24.857Z,16.90
2018-09-11T03:28:53.336Z,16.90
2018-09-11T03:31:21.834Z,16.90
2018-09-11T03:33:50.308Z,16.90
2018-09-11T03:36:18.801Z,16.90
2018-09-11T03:38:47.261Z,16.80
2018-09-11T03:41:15.780Z,16.80
2018-09-11T03:43:44.253Z,16.70
2018-09-11T03:46:12.735Z,16.70
2018-09-11T03:48:41.190Z,16.70
2018-09-11T03:51:09.708Z,16.70
2018-09-11T03:53:38.215Z,16.70
2018-09-11T03:56:06.694Z,16.70
2018-09-11T03:58:35.144Z,16.70
2018-09-11T04:01:03.651Z,16.70
2018-09-11T04:03:32.089Z,16.70
2018-09-11T04:06:00.566Z,16.70
2018-09-11T04:08:29.078Z,16.60
2018-09-11T04:10:57.524Z,16.60
2018-09-11T04:13:26.017Z,16.60
2018-09-11T04:15:55.510Z,16.50
2018-09-11T04:18:24.013Z,16.50
2018-09-11T04:20:52.572Z,16.50
2018-09-11T04:23:21.425Z,16.50
2018-09-11T04:25:50.254Z,16.50
2018-09-11T04:28:18.768Z,16.50
2018-09-11T04:30:47.235Z,16.50
2018-09-11T04:33:15.723Z,16.50
2018-09-11T04:35:44.200Z,16.40
2018-09-11T04:38:12.733Z,16.50
2018-09-11T04:40:41.169Z,16.40
2018-09-11T04:43:09.720Z,16.40
2018-09-11T04:45:38.169Z,16.40
2018-09-11T04:48:06.813Z,16.40
2018-09-11T04:50:35.352Z,16.40
2018-09-11T04:53:03.772Z,16.40
2018-09-11T04:55:32.253Z,16.40
2018-09-11T04:58:00.659Z,16.40
2018-09-11T05:00:29.176Z,16.30
2018-09-11T05:02:57.594Z,16.30
2018-09-11T05:05:26.100Z,16.30
2018-09-11T05:07:54.611Z,16.30
2018-09-11T05:10:23.041Z,16.40
2018-09-11T05:12:52.495Z,16.30
2018-09-11T05:15:20.926Z,16.30
2018-09-11T05:17:49.496Z,16.40
2018-09-11T05:20:17.993Z,16.40
2018-09-11T05:22:47.504Z,16.40
2018-09-11T05:25:15.979Z,16.40
2018-09-11T05:27:44.468Z,16.40
2018-09-11T05:30:12.950Z,16.40
2018-09-11T05:32:41.433Z,16.40
2018-09-11T05:35:09.913Z,16.40
2018-09-11T05:37:38.401Z,16.50
2018-09-11T05:40:06.923Z,16.50
2018-09-11T05:42:35.360Z,16.50
2018-09-11T05:45:03.986Z,16.60
2018-09-11T05:47:32.459Z,16.70
2018-09-11T05:50:00.923Z,16.60
2018-09-11T05:52:29.405Z,16.70
2018-09-11T05:54:57.908Z,16.70
2018-09-11T05:57:26.340Z,16.70
2018-09-11T05:59:54.841Z,16.70
2018-09-11T06:02:23.358Z,16.70
2018-09-11T06:04:51.807Z,16.70
2018-09-11T06:07:20.313Z,16.70
2018-09-11T06:09:48.760Z,16.70
2018-09-11T06:12:17.319Z,16.70
2018-09-11T06:14:45.837Z,16.80
2018-09-11T06:17:14.295Z,16.80
2018-09-11T06:19:42.789Z,16.80
2018-09-11T06:22:11.273Z,16.90
2018-09-11T06:24:39.786Z,16.90
2018-09-11T06:27:08.272Z,16.90
2018-09-11T06:29:36.729Z,16.90
2018-09-11T06:32:05.194Z,17.00
2018-09-11T06:34:33.689Z,17.10
2018-09-11T06:37:02.171Z,17.10
2018-09-11T06:39:30.641Z,17.10
2018-09-11T06:41:59.165Z,17.10
2018-09-11T06:44:27.713Z,17.20
2018-09-11T06:46:56.279Z,17.20
2018-09-11T06:49:24.862Z,17.30
2018-09-11T06:51:53.371Z,17.30
2018-09-11T06:54:21.841Z,17.30
2018-09-11T06:56:50.352Z,17.40
2018-09-11T06:59:18.805Z,17.50
2018-09-11T07:01:47.355Z,17.60
2018-09-11T07:04:15.773Z,17.60
2018-09-11T07:06:44.240Z,17.70
2018-09-11T07:09:12.853Z,17.70
2018-09-11T07:11:41.345Z,17.80
2018-09-11T07:14:09.860Z,17.80
2018-09-11T07:16:38.273Z,17.90
2018-09-11T07:19:06.724Z,18.00
2018-09-11T07:21:35.236Z,18.10
2018-09-11T07:24:04.765Z,18.10
2018-09-11T07:26:33.253Z,18.20
2018-09-11T07:29:01.749Z,18.30
2018-09-11T07:31:30.189Z,18.40
2018-09-11T07:33:59.695Z,18.40
2018-09-11T07:36:28.237Z,18.50
2018-09-11T07:38:56.672Z,18.60
2018-09-11T07:41:25.145Z,18.70
2018-09-11T07:44:57.107Z,18.80
2018-09-11T07:47:25.617Z,18.80
2018-09-11T07:49:54.101Z,18.90
2018-09-11T07:52:22.591Z,18.90
2018-09-11T07:54:51.024Z,19.00
2018-09-11T07:57:19.530Z,19.00
2018-09-11T07:59:47.990Z,19.00
2018-09-11T08:02:16.492Z,19.10
2018-09-11T08:04:44.955Z,19.20
2018-09-11T08:07:13.465Z,19.30
2018-09-11T08:09:41.985Z,19.40
2018-09-11T08:12:10.429Z,19.60
2018-09-11T08:14:38.881Z,19.70
2018-09-11T08:17:07.372Z,19.70
2018-09-11T08:19:35.779Z,19.90
2018-09-11T08:22:04.317Z,20.00
2018-09-11T08:24:32.860Z,20.10
2018-09-11T08:27:01.326Z,20.20
2018-09-11T08:29:29.922Z,20.30
2018-09-11T08:31:58.380Z,20.40
2018-09-11T08:34:26.855Z,20.50
2018-09-11T08:36:55.340Z,20.60
2018-09-11T08:39:23.817Z,20.70
2018-09-11T08:41:52.344Z,20.80
2018-09-11T08:44:20.780Z,20.90
2018-09-11T08:46:49.421Z,21.10
2018-09-11T08:49:17.853Z,21.20
2018-09-11T08:51:46.417Z,21.30
2018-09-11T08:54:14.924Z,21.50
2018-09-11T08:56:43.385Z,21.70
2018-09-11T08:59:11.886Z,21.80
2018-09-11T09:01:40.368Z,21.80
2018-09-11T09:04:08.841Z,22.10
2018-09-11T09:06:37.301Z,22.30
2018-09-11T09:09:08.449Z,22.40
2018-09-11T09:11:37.360Z,22.50
2018-09-11T09:14:06.072Z,22.60
2018-09-11T09:16:34.528Z,22.80
2018-09-11T09:19:03.085Z,22.80
2018-09-11T09:21:31.920Z,22.80
2018-09-11T09:24:00.591Z,22.90
2018-09-11T09:26:29.073Z,22.90
2018-09-11T09:28:57.588Z,23.00
2018-09-11T09:31:26.079Z,23.10
2018-09-11T09:33:54.615Z,23.20
2018-09-11T09:36:23.196Z,23.40
2018-09-11T09:38:51.669Z,23.70
2018-09-11T09:41:20.185Z,23.80
2018-09-11T09:43:48.747Z,23.80
2018-09-11T09:46:17.208Z,23.90
2018-09-11T09:48:45.729Z,23.90
2018-09-11T09:51:14.192Z,24.00
2018-09-11T09:53:42.710Z,24.10
2018-09-11T09:56:11.150Z,24.10
2018-09-11T09:58:40.689Z,24.20
2018-09-11T10:01:14.381Z,24.20
2018-09-11T10:03:42.888Z,24.10
2018-09-11T10:06:11.345Z,24.20
2018-09-11T10:08:39.829Z,24.20
2018-09-11T10:11:08.281Z,24.30
2018-09-11T10:13:36.785Z,24.40
2018-09-11T10:16:05.293Z,24.40
2018-09-11T10:18:33.751Z,24.40
2018-09-11T10:21:02.241Z,24.50
2018-09-11T10:23:30.719Z,24.40
2018-09-11T10:25:59.186Z,24.60
2018-09-11T10:28:27.651Z,24.60
2018-09-11T10:30:56.165Z,24.60
2018-09-11T10:33:24.628Z,24.70
2018-09-11T10:35:53.108Z,24.80
2018-09-11T10:38:21.728Z,24.90
2018-09-11T10:40:50.257Z,25.00
2018-09-11T10:43:18.789Z,25.10
2018-09-11T10:45:47.256Z,25.00
2018-09-11T10:48:15.709Z,25.00
2018-09-11T10:50:44.223Z,25.10
2018-09-11T10:53:12.666Z,25.10
2018-09-11T10:55:41.199Z,25.20
2018-09-11T10:58:09.693Z,25.20
2018-09-11T11:00:38.157Z,25.20
2018-09-11T11:03:06.972Z,25.20
2018-09-11T11:05:35.585Z,25.30
2018-09-11T11:08:04.408Z,25.50
2018-09-11T11:10:32.907Z,25.50
2018-09-11T11:13:01.704Z,25.60
2018-09-11T11:15:30.241Z,25.50
2018-09-11T11:17:58.973Z,25.50
2018-09-11T11:20:27.433Z,25.50
2018-09-11T11:22:55.918Z,25.50
2018-09-11T11:25:24.517Z,25.50
2018-09-11T11:27:53.125Z,25.70
2018-09-11T11:30:21.581Z,25.70
2018-09-11T11:32:50.092Z,25.70
2018-09-11T11:35:18.514Z,25.70
2018-09-11T11:37:46.982Z,25.70
2018-09-11T11:40:15.481Z,25.90
2018-09-11T11:42:43.959Z,25.70
2018-09-11T11:45:12.679Z,25.90
2018-09-11T11:47:41.121Z,26.00
2018-09-11T11:50:09.630Z,26.00
2018-09-11T11:52:38.145Z,25.90
2018-09-11T11:55:06.651Z,26.00
2018-09-11T11:57:35.130Z,26.10
2018-09-11T12:00:03.917Z,26.00
2018-09-11T12:02:32.447Z,26.00
2018-09-11T12:05:00.921Z,26.10
2018-09-11T12:07:29.566Z,26.20
2018-09-11T12:09:58.295Z,26.20
2018-09-11T12:12:26.818Z,26.10
2018-09-11T12:14:55.367Z,26.20
2018-09-11T12:17:23.841Z,26.20
2018-09-11T12:19:52.314Z,26.40
2018-09-11T12:22:20.828Z,26.60
2018-09-11T12:24:49.288Z,26.50
2018-09-11T12:27:17.777Z,26.60
2018-09-11T12:29:46.288Z,26.50
2018-09-11T12:32:15.050Z,26.40
2018-09-11T12:34:43.840Z,26.60
2018-09-11T12:37:12.314Z,26.70
2018-09-11T12:39:40.796Z,26.90
2018-09-11T12:42:09.688Z,27.20
2018-09-11T12:44:38.205Z,27.40
2018-09-11T12:47:07.662Z,27.40
2018-09-11T12:49:36.009Z,27.50
2018-09-11T12:52:04.545Z,27.70
2018-09-11T12:54:33.050Z,27.80
2018-09-11T12:57:01.538Z,28.00
2018-09-11T12:59:29.992Z,28.30
2018-09-11T13:01:58.666Z,28.30
2018-09-11T13:04:27.147Z,28.20
2018-09-11T13:06:55.648Z,28.30
2018-09-11T13:09:24.194Z,28.40
2018-09-11T13:11:52.737Z,28.60
2018-09-11T13:14:21.242Z,28.80
2018-09-11T13:16:49.995Z,29.00
2018-09-11T13:19:18.437Z,29.30
2018-09-11T13:21:47.154Z,29.50
2018-09-11T13:24:15.779Z,29.60
2018-09-11T13:26:44.340Z,30.00
2018-09-11T13:29:12.876Z,30.00
2018-09-11T13:31:41.727Z,30.10
2018-09-11T13:34:10.260Z,30.50
2018-09-11T13:36:38.728Z,30.60
2018-09-11T13:39:09.462Z,30.80
2018-09-11T13:41:37.976Z,31.00
2018-09-11T13:44:06.555Z,30.90
2018-09-11T13:46:35.019Z,31.20
2018-09-11T13:49:03.510Z,31.50
2018-09-11T13:51:32.401Z,31.70
2018-09-11T13:54:00.872Z,32.00
2018-09-11T13:56:29.371Z,32.00
2018-09-11T13:58:57.854Z,31.70
2018-09-11T14:01:26.332Z,32.10
2018-09-11T14:03:54.787Z,32.60
2018-09-11T14:06:24.329Z,32.70
2018-09-11T14:08:52.892Z,32.60
2018-09-11T14:11:21.406Z,32.40
2018-09-11T14:13:49.862Z,32.00
2018-09-11T14:16:18.413Z,31.20
2018-09-11T14:18:46.856Z,30.70
2018-09-11T14:21:15.369Z,30.20
2018-09-11T14:23:45.416Z,29.70
2018-09-11T14:26:13.967Z,29.40
2018-09-11T14:28:44.890Z,29.20
2018-09-11T14:31:13.392Z,28.90
2018-09-11T14:33:42.005Z,28.70
2018-09-11T14:36:12.640Z,28.60
2018-09-11T14:38:41.249Z,28.50
2018-09-11T14:41:09.998Z,28.40
2018-09-11T14:43:38.964Z,28.50
2018-09-11T14:46:07.470Z,28.40
2018-09-11T14:48:37.081Z,28.20
2018-09-11T14:51:06.207Z,28.20
2018-09-11T14:53:36.046Z,28.10
2018-09-11T14:56:04.792Z,28.20
2018-09-11T14:58:34.020Z,28.00
2018-09-11T15:01:02.619Z,28.00
2018-09-11T15:03:32.096Z,28.00
2018-09-11T15:06:00.683Z,28.00
2018-09-11T15:08:29.185Z,28.10
2018-09-11T15:10:57.659Z,28.00
2018-09-11T15:13:26.287Z,27.90
2018-09-11T15:15:54.807Z,27.90
2018-09-11T15:18:23.640Z,27.90
2018-09-11T15:20:52.121Z,27.90
2018-09-11T15:23:20.666Z,27.90
2018-09-11T15:25:49.162Z,27.90
2018-09-11T15:28:17.753Z,27.90
2018-09-11T15:30:46.212Z,27.70
2018-09-11T15:33:14.800Z,27.70
2018-09-11T15:35:43.293Z,27.80
2018-09-11T15:38:11.768Z,27.80
2018-09-11T15:40:40.253Z,27.70
2018-09-11T15:43:10.992Z,27.60
2018-09-11T15:45:40.475Z,27.60
2018-09-11T15:48:08.973Z,27.60
2018-09-11T15:50:37.577Z,27.60
2018-09-11T15:53:06.769Z,27.50
2018-09-11T15:55:35.549Z,27.50
2018-09-11T15:58:04.340Z,27.50
2018-09-11T16:00:32.874Z,27.40
2018-09-11T16:03:01.374Z,27.50
2018-09-11T16:05:29.872Z,27.40
2018-09-11T16:07:58.375Z,27.40
2018-09-11T16:10:26.925Z,27.30
2018-09-11T16:12:55.568Z,27.30
2018-09-11T16:15:24.096Z,27.30
2018-09-11T16:17:52.622Z,27.30
2018-09-11T16:20:21.084Z,27.20
2018-09-11T16:22:49.539Z,27.10
2018-09-11T16:25:18.016Z,27.10
2018-09-11T16:27:46.516Z,27.10
2018-09-11T16:30:15.508Z,27.10
2018-09-11T16:32:44.100Z,27.10
2018-09-11T16:35:12.577Z,27.00
2018-09-11T16:37:41.057Z,27.00
2018-09-11T16:40:09.810Z,26.90
2018-09-11T16:42:39.428Z,26.90
2018-09-11T16:45:09.242Z,26.80
2018-09-11T16:47:38.668Z,26.80
2018-09-11T16:50:08.596Z,26.80
2018-09-11T16:52:37.064Z,26.70
2018-09-11T16:55:05.892Z,26.70
2018-09-11T16:57:34.332Z,26.70
2018-09-11T17:00:02.912Z,26.60
2018-09-11T17:02:31.495Z,26.60
2018-09-11T17:05:00.068Z,26.60
2018-09-11T17:08:31.678Z,26.50
2018-09-11T17:11:00.182Z,26.50
2018-09-11T17:13:28.812Z,26.50
2018-09-11T17:15:57.613Z,26.40
2018-09-11T17:18:26.125Z,26.40
2018-09-11T17:20:54.901Z,26.30
2018-09-11T17:23:23.339Z,26.20
2018-09-11T17:25:51.860Z,26.20
2018-09-11T17:35:19.661Z,26.10
2018-09-11T17:37:48.193Z,26.00
2018-09-11T17:40:16.831Z,25.90
2018-09-11T17:42:45.421Z,25.80
2018-09-11T17:45:13.930Z,25.80
2018-09-11T17:47:42.426Z,25.70
2018-09-11T17:50:11.025Z,25.70
2018-09-11T17:52:39.551Z,25.70
2018-09-11T17:55:08.084Z,25.60
2018-09-11T17:57:36.856Z,25.60
2018-09-11T18:00:05.594Z,25.50
2018-09-11T18:02:34.822Z,25.40
2018-09-11T18:05:04.340Z,25.40
2018-09-11T18:07:33.084Z,25.30
2018-09-11T18:10:01.597Z,25.30
2018-09-11T18:12:30.046Z,25.20
2018-09-11T18:14:58.586Z,25.20
2018-09-11T18:17:26.993Z,25.10
2018-09-11T18:19:55.713Z,25.10
2018-09-11T18:22:24.687Z,25.00
2018-09-11T18:24:54.601Z,25.00
2018-09-11T18:27:23.159Z,25.00
2018-09-11T18:29:51.743Z,25.00
2018-09-11T18:32:20.279Z,24.90
2018-09-11T18:34:48.833Z,24.90
2018-09-11T18:37:17.372Z,24.80
2018-09-11T18:39:45.943Z,24.80
2018-09-11T18:42:14.501Z,24.80
2018-09-11T18:44:43.008Z,24.70
2018-09-11T18:47:11.506Z,24.60
2018-09-11T18:49:39.981Z,24.60
2018-09-11T18:52:08.430Z,24.60
2018-09-11T18:54:36.959Z,24.50
2018-09-11T18:57:05.447Z,24.50
2018-09-11T18:59:33.996Z,24.40
2018-09-11T19:02:02.494Z,24.40
2018-09-11T19:04:30.948Z,24.30
2018-09-11T19:06:59.452Z,24.20
2018-09-11T19:09:27.917Z,24.20
2018-09-11T19:11:56.393Z,24.20
2018-09-11T19:14:24.941Z,24.10
2018-09-11T19:16:53.429Z,24.00
2018-09-11T19:19:21.997Z,23.90
2018-09-11T19:21:50.748Z,23.80
2018-09-11T19:24:19.244Z,23.80
2018-09-11T19:26:49.663Z,23.80
2018-09-11T19:29:18.122Z,23.70
2018-09-11T19:31:46.727Z,23.70
2018-09-11T19:34:15.285Z,23.60
2018-09-11T19:36:45.806Z,23.50
2018-09-11T19:39:14.369Z,23.40
2018-09-11T19:41:42.870Z,23.30
2018-09-11T19:44:11.697Z,23.30
2018-09-11T19:46:40.159Z,23.20
2018-09-11T19:49:08.625Z,23.10
2018-09-11T19:51:37.115Z,23.10
2018-09-11T19:54:06.016Z,23.00
2018-09-11T19:56:36.248Z,23.00
2018-09-11T19:59:04.710Z,23.00
2018-09-11T20:01:33.265Z,23.00
2018-09-11T20:04:01.914Z,23.00
2018-09-11T20:06:30.362Z,22.90
2018-09-11T20:08:58.857Z,22.90
2018-09-11T20:11:27.430Z,22.80
2018-09-11T20:13:56.937Z,22.80
2018-09-11T20:16:25.572Z,22.80
2018-09-11T20:18:54.193Z,22.80
2018-09-11T20:21:22.659Z,22.80
2018-09-11T20:23:51.829Z,22.80
2018-09-11T20:26:20.365Z,22.80
2018-09-11T20:28:48.875Z,22.80
2018-09-11T20:31:24.594Z,22.80
2018-09-11T20:33:53.071Z,22.80
2018-09-11T20:36:22.033Z,22.80
2018-09-11T20:38:50.591Z,22.70
2018-09-11T20:41:19.196Z,22.70
2018-09-11T20:43:47.761Z,22.70
2018-09-11T20:46:16.197Z,22.60
2018-09-11T20:48:44.681Z,22.60
2018-09-11T20:51:13.273Z,22.60
2018-09-11T20:53:41.750Z,22.60
2018-09-11T20:56:10.242Z,22.70
2018-09-11T20:58:38.732Z,22.70
2018-09-11T21:01:07.366Z,22.60
2018-09-11T21:03:35.913Z,22.60
2018-09-11T21:06:05.566Z,22.60
2018-09-11T21:08:34.112Z,22.60
2018-09-11T21:11:02.596Z,22.50
2018-09-11T21:13:31.025Z,22.50
2018-09-11T21:15:59.533Z,22.40
2018-09-11T21:18:28.048Z,22.40
2018-09-11T21:20:56.536Z,22.40
2018-09-11T21:23:24.979Z,22.30
2018-09-11T21:25:53.466Z,22.30
2018-09-11T21:28:21.940Z,22.30
2018-09-11T21:30:50.511Z,22.30
2018-09-11T21:33:18.997Z,22.30
2018-09-11T21:35:47.500Z,22.30
2018-09-11T21:38:15.932Z,22.30
2018-09-11T21:40:44.473Z,22.30
2018-09-11T21:43:12.908Z,22.20
2018-09-11T21:45:41.409Z,22.20
2018-09-11T21:48:09.913Z,22.20
2018-09-11T21:50:38.373Z,22.10
2018-09-11T21:53:06.777Z,22.10
2018-09-11T21:55:35.375Z,22.00
2018-09-11T21:58:04.125Z,22.00
2018-09-11T22:00:32.619Z,22.00
2018-09-11T22:03:04.123Z,22.00
2018-09-11T22:05:32.958Z,21.90
2018-09-11T22:08:01.522Z,21.90
2018-09-11T22:10:29.972Z,21.90
2018-09-11T22:14:23.004Z,21.80
2018-09-11T22:16:51.425Z,21.80
2018-09-11T22:19:19.992Z,21.70
2018-09-11T22:21:48.574Z,21.70
2018-09-11T22:24:16.996Z,21.70
2018-09-11T22:26:45.489Z,21.70
2018-09-11T22:29:13.985Z,21.60
2018-09-11T22:31:42.410Z,21.60
2018-09-11T22:34:10.944Z,21.60
2018-09-11T22:36:39.407Z,21.50
2018-09-11T22:39:08.812Z,21.50
2018-09-11T22:41:37.644Z,21.40
2018-09-11T22:44:06.441Z,21.40
2018-09-11T22:46:34.922Z,21.40
2018-09-11T22:49:03.383Z,21.40
2018-09-11T22:51:31.849Z,21.30
2018-09-11T22:54:00.281Z,21.30
2018-09-11T22:56:28.812Z,21.20
2018-09-11T22:58:57.266Z,21.10
2018-09-11T23:01:25.771Z,21.10
2018-09-11T23:03:54.210Z,21.00
2018-09-11T23:06:22.695Z,20.90
2018-09-11T23:08:51.208Z,20.90
2018-09-11T23:11:19.795Z,20.90
2018-09-11T23:13:48.329Z,20.80
2018-09-11T23:16:16.880Z,20.70
2018-09-11T23:18:45.352Z,20.70
2018-09-11T23:21:13.798Z,20.70
2018-09-11T23:23:42.298Z,20.60
2018-09-11T23:26:10.782Z,20.60
2018-09-11T23:28:39.258Z,20.60
2018-09-11T23:31:08.054Z,20.50
2018-09-11T23:33:36.540Z,20.50
2018-09-11T23:36:05.002Z,20.50
2018-09-11T23:38:33.485Z,20.40
2018-09-11T23:41:02.038Z,20.50
2018-09-11T23:43:30.459Z,20.40
2018-09-11T23:45:58.953Z,20.40
2018-09-11T23:48:27.420Z,20.40
2018-09-11T23:50:55.917Z,20.40
2018-09-11T23:53:24.368Z,20.40
2018-09-11T23:55:52.900Z,20.40
2018-09-11T23:58:21.342Z,20.30
